sensor_id;sensor_type;location;lat;lon;timestamp;pressure;altitude;pressure_sealevel;temperature;humidity
24390;BME280;12510;56.468;-3.004;2023-08-07T00:01:10;100925.94;;;15.05;100.00
24390;BME280;12510;56.468;-3.004;2023-08-07T00:03:36;100924.16;;;15.14;100.00
24390;BME280;12510;56.468;-3.004;2023-08-07T00:06:02;100921.34;;;15.15;100.00
24390;BME280;12510;56.468;-3.004;2023-08-07T00:08:29;100923.84;;;15.17;100.00
24390;BME280;12510;56.468;-3.004;2023-08-07T00:11:15;100921.22;;;15.25;100.00
24390;BME280;12510;56.468;-3.004;2023-08-07T00:13:41;100919.53;;;15.24;100.00
24390;BME280;12510;56.468;-3.004;2023-08-07T00:16:08;100918.56;;;15.25;100.00
24390;BME280;12510;56.468;-3.004;2023-08-07T00:18:36;100916.22;;;15.22;100.00
24390;BME280;12510;56.468;-3.004;2023-08-07T00:21:02;100926.34;;;15.27;100.00
24390;BME280;12510;56.468;-3.004;2023-08-07T00:23:29;100914.91;;;15.26;100.00
24390;BME280;12510;56.468;-3.004;2023-08-07T00:25:55;100914.91;;;15.26;100.00
24390;BME280;12510;56.468;-3.004;2023-08-07T00:28:22;100910.94;;;15.30;100.00
24390;BME280;12510;56.468;-3.004;2023-08-07T00:30:48;100908.47;;;15.37;100.00
24390;BME280;12510;56.468;-3.004;2023-08-07T00:33:15;100911.31;;;15.44;100.00
24390;BME280;12510;56.468;-3.004;2023-08-07T00:35:42;100910.16;;;15.46;100.00
24390;BME280;12510;56.468;-3.004;2023-08-07T00:38:08;100912.16;;;15.44;100.00
24390;BME280;12510;56.468;-3.004;2023-08-07T00:40:39;100910.66;;;15.50;100.00
24390;BME280;12510;56.468;-3.004;2023-08-07T00:43:06;100905.88;;;15.53;100.00
24390;BME280;12510;56.468;-3.004;2023-08-07T00:45:43;100911.19;;;15.53;100.00
24390;BME280;12510;56.468;-3.004;2023-08-07T00:48:11;100898.06;;;15.52;100.00
24390;BME280;12510;56.468;-3.004;2023-08-07T00:50:40;100895.75;;;15.49;100.00
24390;BME280;12510;56.468;-3.004;2023-08-07T00:53:08;100896.75;;;15.56;100.00
24390;BME280;12510;56.468;-3.004;2023-08-07T00:55:35;100893.09;;;15.57;100.00
24390;BME280;12510;56.468;-3.004;2023-08-07T00:58:02;100896.56;;;15.49;100.00
24390;BME280;12510;56.468;-3.004;2023-08-07T01:00:29;100890.28;;;15.50;100.00
24390;BME280;12510;56.468;-3.004;2023-08-07T01:02:56;100890.09;;;15.44;100.00
24390;BME280;12510;56.468;-3.004;2023-08-07T01:05:26;100884.44;;;15.38;100.00
24390;BME280;12510;56.468;-3.004;2023-08-07T01:07:53;100884.78;;;15.44;100.00
24390;BME280;12510;56.468;-3.004;2023-08-07T01:13:30;100882.47;;;15.49;100.00
24390;BME280;12510;56.468;-3.004;2023-08-07T01:16:02;100875.97;;;15.43;100.00
24390;BME280;12510;56.468;-3.004;2023-08-07T01:18:34;100869.50;;;15.37;100.00
24390;BME280;12510;56.468;-3.004;2023-08-07T01:21:03;100863.72;;;15.34;100.00
24390;BME280;12510;56.468;-3.004;2023-08-07T01:23:30;100868.50;;;15.30;100.00
24390;BME280;12510;56.468;-3.004;2023-08-07T01:25:56;100864.50;;;15.26;100.00
24390;BME280;12510;56.468;-3.004;2023-08-07T01:28:28;100865.50;;;15.25;100.00
24390;BME280;12510;56.468;-3.004;2023-08-07T01:31:03;100860.97;;;15.09;100.00
24390;BME280;12510;56.468;-3.004;2023-08-07T01:36:14;100861.84;;;15.18;100.00
24390;BME280;12510;56.468;-3.004;2023-08-07T01:38:43;100859.19;;;15.18;100.00
24390;BME280;12510;56.468;-3.004;2023-08-07T01:41:10;100856.00;;;15.14;100.00
24390;BME280;12510;56.468;-3.004;2023-08-07T01:43:36;100865.94;;;15.12;100.00
24390;BME280;12510;56.468;-3.004;2023-08-07T01:46:02;100862.28;;;15.13;100.00
24390;BME280;12510;56.468;-3.004;2023-08-07T01:48:31;100862.97;;;15.15;100.00
24390;BME280;12510;56.468;-3.004;2023-08-07T01:50:57;100855.03;;;15.15;100.00
24390;BME280;12510;56.468;-3.004;2023-08-07T01:53:24;100860.31;;;15.15;100.00
24390;BME280;12510;56.468;-3.004;2023-08-07T01:55:51;100847.56;;;15.19;100.00
24390;BME280;12510;56.468;-3.004;2023-08-07T01:58:17;100852.38;;;15.23;100.00
24390;BME280;12510;56.468;-3.004;2023-08-07T02:00:44;100855.22;;;15.22;100.00
24390;BME280;12510;56.468;-3.004;2023-08-07T02:03:10;100852.22;;;15.17;100.00
24390;BME280;12510;56.468;-3.004;2023-08-07T02:05:37;100850.38;;;15.17;100.00
24390;BME280;12510;56.468;-3.004;2023-08-07T02:08:03;100839.59;;;15.19;100.00
24390;BME280;12510;56.468;-3.004;2023-08-07T02:10:30;100847.88;;;15.16;100.00
24390;BME280;12510;56.468;-3.004;2023-08-07T02:12:57;100849.06;;;15.21;100.00
24390;BME280;12510;56.468;-3.004;2023-08-07T02:15:26;100837.78;;;15.11;100.00
24390;BME280;12510;56.468;-3.004;2023-08-07T02:17:52;100838.94;;;15.17;100.00
24390;BME280;12510;56.468;-3.004;2023-08-07T02:20:19;100843.75;;;15.21;100.00
24390;BME280;12510;56.468;-3.004;2023-08-07T02:22:45;100839.59;;;15.19;100.00
24390;BME280;12510;56.468;-3.004;2023-08-07T02:25:12;100833.47;;;15.18;100.00
24390;BME280;12510;56.468;-3.004;2023-08-07T02:27:38;100828.97;;;15.19;100.00
24390;BME280;12510;56.468;-3.004;2023-08-07T02:30:06;100831.81;;;15.17;100.00
24390;BME280;12510;56.468;-3.004;2023-08-07T02:32:32;100829.16;;;15.25;100.00
24390;BME280;12510;56.468;-3.004;2023-08-07T02:34:59;100825.69;;;15.25;100.00
24390;BME280;12510;56.468;-3.004;2023-08-07T02:37:25;100829.03;;;15.27;100.00
24390;BME280;12510;56.468;-3.004;2023-08-07T02:39:52;100837.97;;;15.26;100.00
24390;BME280;12510;56.468;-3.004;2023-08-07T02:42:20;100831.69;;;15.27;100.00
24390;BME280;12510;56.468;-3.004;2023-08-07T02:44:47;100834.63;;;15.24;100.00
24390;BME280;12510;56.468;-3.004;2023-08-07T02:47:13;100834.34;;;15.27;100.00
24390;BME280;12510;56.468;-3.004;2023-08-07T02:49:40;100828.34;;;15.25;100.00
24390;BME280;12510;56.468;-3.004;2023-08-07T02:52:07;100823.03;;;15.25;100.00
24390;BME280;12510;56.468;-3.004;2023-08-07T02:54:33;100821.06;;;15.27;100.00
24390;BME280;12510;56.468;-3.004;2023-08-07T02:56:59;100823.72;;;15.27;100.00
24390;BME280;12510;56.468;-3.004;2023-08-07T02:59:26;100824.53;;;15.19;100.00
24390;BME280;12510;56.468;-3.004;2023-08-07T03:01:52;100828.00;;;15.20;100.00
24390;BME280;12510;56.468;-3.004;2023-08-07T03:04:19;100820.91;;;15.29;100.00
24390;BME280;12510;56.468;-3.004;2023-08-07T03:06:45;100819.41;;;15.26;100.00
24390;BME280;12510;56.468;-3.004;2023-08-07T03:09:12;100822.88;;;15.27;100.00
24390;BME280;12510;56.468;-3.004;2023-08-07T03:11:38;100812.59;;;15.15;100.00
24390;BME280;12510;56.468;-3.004;2023-08-07T03:14:05;100811.91;;;15.21;100.00
24390;BME280;12510;56.468;-3.004;2023-08-07T03:16:31;100812.59;;;15.23;100.00
24390;BME280;12510;56.468;-3.004;2023-08-07T03:18:57;100813.59;;;15.31;100.00
24390;BME280;12510;56.468;-3.004;2023-08-07T03:21:24;100814.75;;;15.28;100.00
24390;BME280;12510;56.468;-3.004;2023-08-07T03:23:50;100804.63;;;15.15;100.00
24390;BME280;12510;56.468;-3.004;2023-08-07T03:26:17;100806.31;;;15.24;100.00
24390;BME280;12510;56.468;-3.004;2023-08-07T03:28:44;100800.31;;;15.22;100.00
24390;BME280;12510;56.468;-3.004;2023-08-07T03:31:12;100796.84;;;15.22;100.00
24390;BME280;12510;56.468;-3.004;2023-08-07T03:33:38;100795.84;;;15.23;100.00
24390;BME280;12510;56.468;-3.004;2023-08-07T03:36:05;100792.03;;;15.25;100.00
24390;BME280;12510;56.468;-3.004;2023-08-07T03:38:32;100791.22;;;15.25;100.00
24390;BME280;12510;56.468;-3.004;2023-08-07T03:41:00;100789.88;;;15.21;100.00
24390;BME280;12510;56.468;-3.004;2023-08-07T03:43:26;100787.22;;;15.21;100.00
24390;BME280;12510;56.468;-3.004;2023-08-07T03:45:56;100791.84;;;15.19;100.00
24390;BME280;12510;56.468;-3.004;2023-08-07T03:48:22;100785.03;;;15.16;100.00
24390;BME280;12510;56.468;-3.004;2023-08-07T03:50:50;100800.81;;;15.18;100.00
24390;BME280;12510;56.468;-3.004;2023-08-07T03:53:17;100788.88;;;15.14;100.00
24390;BME280;12510;56.468;-3.004;2023-08-07T03:55:50;100787.50;;;15.09;100.00
24390;BME280;12510;56.468;-3.004;2023-08-07T03:58:19;100788.50;;;15.00;100.00
24390;BME280;12510;56.468;-3.004;2023-08-07T04:00:45;100782.22;;;15.09;100.00
24390;BME280;12510;56.468;-3.004;2023-08-07T04:03:12;100785.69;;;15.02;100.00
24390;BME280;12510;56.468;-3.004;2023-08-07T04:05:38;100788.72;;;15.15;100.00
24390;BME280;12510;56.468;-3.004;2023-08-07T04:08:07;100787.88;;;15.15;100.00
24390;BME280;12510;56.468;-3.004;2023-08-07T04:10:34;100776.09;;;15.09;100.00
24390;BME280;12510;56.468;-3.004;2023-08-07T04:13:00;100785.22;;;15.15;100.00
24390;BME280;12510;56.468;-3.004;2023-08-07T04:15:27;100779.53;;;15.01;100.00
24390;BME280;12510;56.468;-3.004;2023-08-07T04:17:54;100784.84;;;15.09;100.00
24390;BME280;12510;56.468;-3.004;2023-08-07T04:20:20;100788.03;;;15.13;100.00
24390;BME280;12510;56.468;-3.004;2023-08-07T04:22:47;100773.78;;;15.06;100.00
24390;BME280;12510;56.468;-3.004;2023-08-07T04:25:13;100775.44;;;15.07;100.00
24390;BME280;12510;56.468;-3.004;2023-08-07T04:27:40;100765.94;;;14.96;100.00
24390;BME280;12510;56.468;-3.004;2023-08-07T04:30:07;100778.09;;;15.07;100.00
24390;BME280;12510;56.468;-3.004;2023-08-07T04:32:33;100771.28;;;15.04;100.00
24390;BME280;12510;56.468;-3.004;2023-08-07T04:35:00;100772.59;;;15.00;100.00
24390;BME280;12510;56.468;-3.004;2023-08-07T04:37:26;100767.59;;;14.89;100.00
24390;BME280;12510;56.468;-3.004;2023-08-07T04:39:53;100761.34;;;14.64;100.00
24390;BME280;12510;56.468;-3.004;2023-08-07T04:42:20;100764.22;;;14.79;100.00
24390;BME280;12510;56.468;-3.004;2023-08-07T04:44:47;100762.91;;;14.83;100.00
24390;BME280;12510;56.468;-3.004;2023-08-07T04:47:13;100762.78;;;14.84;100.00
24390;BME280;12510;56.468;-3.004;2023-08-07T04:49:40;100760.97;;;14.93;100.00
24390;BME280;12510;56.468;-3.004;2023-08-07T04:52:06;100770.94;;;14.99;100.00
24390;BME280;12510;56.468;-3.004;2023-08-07T04:54:33;100755.03;;;14.99;100.00
24390;BME280;12510;56.468;-3.004;2023-08-07T04:56:59;100750.69;;;14.98;100.00
24390;BME280;12510;56.468;-3.004;2023-08-07T04:59:25;100746.88;;;14.84;100.00
24390;BME280;12510;56.468;-3.004;2023-08-07T05:01:52;100737.06;;;14.77;100.00
24390;BME280;12510;56.468;-3.004;2023-08-07T05:04:19;100737.28;;;15.00;100.00
24390;BME280;12510;56.468;-3.004;2023-08-07T05:06:45;100744.78;;;15.13;100.00
24390;BME280;12510;56.468;-3.004;2023-08-07T05:09:12;100743.25;;;14.94;100.00
24390;BME280;12510;56.468;-3.004;2023-08-07T05:11:38;100739.22;;;14.89;100.00
24390;BME280;12510;56.468;-3.004;2023-08-07T05:14:05;100739.94;;;15.00;100.00
24390;BME280;12510;56.468;-3.004;2023-08-07T05:16:32;100732.75;;;14.75;100.00
24390;BME280;12510;56.468;-3.004;2023-08-07T05:18:58;100723.28;;;14.65;100.00
24390;BME280;12510;56.468;-3.004;2023-08-07T05:21:24;100732.47;;;14.95;100.00
24390;BME280;12510;56.468;-3.004;2023-08-07T05:23:51;100734.81;;;15.06;100.00
24390;BME280;12510;56.468;-3.004;2023-08-07T05:26:21;100730.16;;;15.00;100.00
24390;BME280;12510;56.468;-3.004;2023-08-07T05:28:48;100731.16;;;14.99;100.00
24390;BME280;12510;56.468;-3.004;2023-08-07T05:31:14;100716.03;;;14.83;100.00
24390;BME280;12510;56.468;-3.004;2023-08-07T05:33:40;100721.53;;;14.98;100.00
24390;BME280;12510;56.468;-3.004;2023-08-07T05:36:07;100733.63;;;15.01;100.00
24390;BME280;12510;56.468;-3.004;2023-08-07T05:38:33;100739.13;;;15.16;100.00
24390;BME280;12510;56.468;-3.004;2023-08-07T05:41:00;100747.94;;;15.24;100.00
24390;BME280;12510;56.468;-3.004;2023-08-07T05:43:26;100734.50;;;15.18;100.00
24390;BME280;12510;56.468;-3.004;2023-08-07T05:45:53;100736.19;;;15.44;100.00
24390;BME280;12510;56.468;-3.004;2023-08-07T05:48:19;100744.47;;;15.49;100.00
24390;BME280;12510;56.468;-3.004;2023-08-07T05:50:45;100736.50;;;15.57;100.00
24390;BME280;12510;56.468;-3.004;2023-08-07T05:53:12;100739.00;;;15.58;100.00
24390;BME280;12510;56.468;-3.004;2023-08-07T05:55:41;100738.34;;;15.65;100.00
24390;BME280;12510;56.468;-3.004;2023-08-07T05:58:08;100741.50;;;15.85;100.00
24390;BME280;12510;56.468;-3.004;2023-08-07T06:00:35;100731.00;;;16.00;100.00
24390;BME280;12510;56.468;-3.004;2023-08-07T06:03:01;100733.84;;;15.65;100.00
24390;BME280;12510;56.468;-3.004;2023-08-07T06:05:28;100735.31;;;15.92;100.00
24390;BME280;12510;56.468;-3.004;2023-08-07T06:07:54;100733.84;;;15.65;100.00
24390;BME280;12510;56.468;-3.004;2023-08-07T06:10:21;100736.19;;;15.44;100.00
24390;BME280;12510;56.468;-3.004;2023-08-07T06:12:47;100737.78;;;16.11;100.00
24390;BME280;12510;56.468;-3.004;2023-08-07T06:15:13;100735.16;;;16.02;100.00
24390;BME280;12510;56.468;-3.004;2023-08-07T06:17:40;100738.06;;;16.24;100.00
24390;BME280;12510;56.468;-3.004;2023-08-07T06:20:08;100740.09;;;16.14;100.00
24390;BME280;12510;56.468;-3.004;2023-08-07T06:22:35;100738.28;;;16.14;100.00
24390;BME280;12510;56.468;-3.004;2023-08-07T06:25:02;100736.34;;;16.39;100.00
24390;BME280;12510;56.468;-3.004;2023-08-07T06:27:28;100739.72;;;16.65;100.00
24390;BME280;12510;56.468;-3.004;2023-08-07T06:29:57;100735.97;;;16.82;100.00
24390;BME280;12510;56.468;-3.004;2023-08-07T06:32:25;100738.66;;;16.51;100.00
24390;BME280;12510;56.468;-3.004;2023-08-07T06:34:52;100736.91;;;16.66;100.00
24390;BME280;12510;56.468;-3.004;2023-08-07T06:37:19;100733.19;;;16.84;100.00
24390;BME280;12510;56.468;-3.004;2023-08-07T06:39:46;100733.44;;;16.89;100.00
24390;BME280;12510;56.468;-3.004;2023-08-07T06:42:12;100739.22;;;17.01;100.00
24390;BME280;12510;56.468;-3.004;2023-08-07T06:44:42;100734.59;;;17.03;100.00
24390;BME280;12510;56.468;-3.004;2023-08-07T06:51:35;100736.81;;;17.14;100.00
24390;BME280;12510;56.468;-3.004;2023-08-07T06:54:01;100745.41;;;17.24;100.00
24390;BME280;12510;56.468;-3.004;2023-08-07T06:56:28;100736.63;;;16.92;100.00
24390;BME280;12510;56.468;-3.004;2023-08-07T06:58:54;100735.81;;;17.15;100.00
24390;BME280;12510;56.468;-3.004;2023-08-07T07:01:58;100736.63;;;16.53;100.00
24390;BME280;12510;56.468;-3.004;2023-08-07T07:04:24;100731.13;;;16.63;100.00
24390;BME280;12510;56.468;-3.004;2023-08-07T07:06:51;100739.34;;;17.07;100.00
24390;BME280;12510;56.468;-3.004;2023-08-07T07:09:49;100731.38;;;17.07;100.00
24390;BME280;12510;56.468;-3.004;2023-08-07T07:12:15;100732.84;;;17.33;100.00
24390;BME280;12510;56.468;-3.004;2023-08-07T07:14:42;100734.09;;;17.84;100.00
24390;BME280;12510;56.468;-3.004;2023-08-07T07:17:08;100734.88;;;17.92;100.00
24390;BME280;12510;56.468;-3.004;2023-08-07T07:19:35;100731.28;;;18.30;100.00
24390;BME280;12510;56.468;-3.004;2023-08-07T07:22:01;100730.09;;;18.33;100.00
24390;BME280;12510;56.468;-3.004;2023-08-07T07:24:28;100728.53;;;18.90;100.00
24390;BME280;12510;56.468;-3.004;2023-08-07T07:26:54;100722.97;;;19.06;100.00
24390;BME280;12510;56.468;-3.004;2023-08-07T07:29:20;100736.78;;;19.32;100.00
24390;BME280;12510;56.468;-3.004;2023-08-07T07:31:47;100730.81;;;19.58;100.00
24390;BME280;12510;56.468;-3.004;2023-08-07T07:34:14;100725.19;;;19.24;100.00
24390;BME280;12510;56.468;-3.004;2023-08-07T07:36:40;100731.09;;;19.20;100.00
24390;BME280;12510;56.468;-3.004;2023-08-07T07:39:06;100732.88;;;19.34;100.00
24390;BME280;12510;56.468;-3.004;2023-08-07T07:41:33;100729.72;;;19.24;100.00
24390;BME280;12510;56.468;-3.004;2023-08-07T07:44:00;100734.03;;;20.03;100.00
24390;BME280;12510;56.468;-3.004;2023-08-07T07:46:28;100718.56;;;20.34;100.00
24390;BME280;12510;56.468;-3.004;2023-08-07T07:48:55;100721.41;;;20.25;100.00
24390;BME280;12510;56.468;-3.004;2023-08-07T07:51:22;100708.75;;;21.36;100.00
24390;BME280;12510;56.468;-3.004;2023-08-07T07:53:49;100713.19;;;20.27;100.00
24390;BME280;12510;56.468;-3.004;2023-08-07T07:56:16;100690.97;;;22.09;100.00
24390;BME280;12510;56.468;-3.004;2023-08-07T07:58:42;100683.22;;;22.78;100.00
24390;BME280;12510;56.468;-3.004;2023-08-07T08:01:10;100680.59;;;22.13;100.00
24390;BME280;12510;56.468;-3.004;2023-08-07T08:03:36;100678.59;;;22.92;100.00
24390;BME280;12510;56.468;-3.004;2023-08-07T08:06:03;100652.03;;;25.06;100.00
24390;BME280;12510;56.468;-3.004;2023-08-07T08:08:29;100645.78;;;24.82;100.00
24390;BME280;12510;56.468;-3.004;2023-08-07T08:10:56;100656.94;;;25.09;100.00
24390;BME280;12510;56.468;-3.004;2023-08-07T08:13:22;100643.88;;;26.01;100.00
24390;BME280;12510;56.468;-3.004;2023-08-07T08:15:50;100661.69;;;24.53;100.00
24390;BME280;12510;56.468;-3.004;2023-08-07T08:18:16;100664.28;;;24.11;100.00
24390;BME280;12510;56.468;-3.004;2023-08-07T08:20:42;100660.91;;;24.95;100.00
24390;BME280;12510;56.468;-3.004;2023-08-07T08:23:09;100671.63;;;24.04;100.00
24390;BME280;12510;56.468;-3.004;2023-08-07T08:25:35;100657.59;;;24.51;100.00
24390;BME280;12510;56.468;-3.004;2023-08-07T08:28:02;100660.47;;;24.19;100.00
24390;BME280;12510;56.468;-3.004;2023-08-07T08:30:29;100657.28;;;24.29;100.00
24390;BME280;12510;56.468;-3.004;2023-08-07T08:32:55;100661.38;;;23.75;100.00
24390;BME280;12510;56.468;-3.004;2023-08-07T08:35:22;100680.91;;;21.77;100.00
24390;BME280;12510;56.468;-3.004;2023-08-07T08:37:48;100669.13;;;22.89;100.00
24390;BME280;12510;56.468;-3.004;2023-08-07T08:40:15;100661.06;;;24.39;100.00
24390;BME280;12510;56.468;-3.004;2023-08-07T08:42:44;100656.94;;;23.19;100.00
24390;BME280;12510;56.468;-3.004;2023-08-07T08:45:13;100674.75;;;21.77;100.00
24390;BME280;12510;56.468;-3.004;2023-08-07T08:47:41;100678.34;;;22.09;100.00
24390;BME280;12510;56.468;-3.004;2023-08-07T08:50:12;100663.59;;;21.73;100.00
24390;BME280;12510;56.468;-3.004;2023-08-07T08:52:44;100668.75;;;21.01;100.00
24390;BME280;12510;56.468;-3.004;2023-08-07T08:55:12;100675.56;;;21.71;100.00
24390;BME280;12510;56.468;-3.004;2023-08-07T08:57:39;100655.06;;;23.45;100.00
24390;BME280;12510;56.468;-3.004;2023-08-07T09:00:07;100645.31;;;22.61;100.00
24390;BME280;12510;56.468;-3.004;2023-08-07T09:03:00;100640.31;;;22.71;100.00
24390;BME280;12510;56.468;-3.004;2023-08-07T09:05:27;100636.75;;;23.09;100.00
24390;BME280;12510;56.468;-3.004;2023-08-07T09:07:55;100636.19;;;22.69;100.00
24390;BME280;12510;56.468;-3.004;2023-08-07T09:10:22;100634.44;;;22.56;100.00
24390;BME280;12510;56.468;-3.004;2023-08-07T09:12:57;100647.34;;;21.41;100.00
24390;BME280;12510;56.468;-3.004;2023-08-07T09:15:25;100635.22;;;22.18;100.00
24390;BME280;12510;56.468;-3.004;2023-08-07T09:17:54;100638.28;;;20.89;100.00
24390;BME280;12510;56.468;-3.004;2023-08-07T09:20:23;100639.59;;;22.05;100.00
24390;BME280;12510;56.468;-3.004;2023-08-07T09:22:50;100631.91;;;21.37;100.00
24390;BME280;12510;56.468;-3.004;2023-08-07T09:25:27;100652.09;;;21.53;100.00
24390;BME280;12510;56.468;-3.004;2023-08-07T09:27:55;100641.97;;;21.62;100.00
24390;BME280;12510;56.468;-3.004;2023-08-07T09:30:29;100627.78;;;21.34;100.00
24390;BME280;12510;56.468;-3.004;2023-08-07T09:32:59;100617.03;;;21.68;100.00
24390;BME280;12510;56.468;-3.004;2023-08-07T09:35:27;100622.56;;;21.86;100.00
24390;BME280;12510;56.468;-3.004;2023-08-07T09:37:53;100614.91;;;22.74;100.00
24390;BME280;12510;56.468;-3.004;2023-08-07T09:40:20;100616.53;;;23.51;100.00
24390;BME280;12510;56.468;-3.004;2023-08-07T09:42:50;100615.66;;;22.81;100.00
24390;BME280;12510;56.468;-3.004;2023-08-07T09:45:25;100622.31;;;22.79;100.00
24390;BME280;12510;56.468;-3.004;2023-08-07T09:50:25;100611.63;;;21.88;100.00
24390;BME280;12510;56.468;-3.004;2023-08-07T09:52:53;100607.94;;;21.82;100.00
24390;BME280;12510;56.468;-3.004;2023-08-07T09:55:22;100613.66;;;21.86;100.00
24390;BME280;12510;56.468;-3.004;2023-08-07T09:57:49;100598.44;;;23.21;100.00
24390;BME280;12510;56.468;-3.004;2023-08-07T10:00:16;100604.47;;;22.91;100.00
24390;BME280;12510;56.468;-3.004;2023-08-07T10:02:46;100587.34;;;23.10;100.00
24390;BME280;12510;56.468;-3.004;2023-08-07T10:05:14;100591.97;;;23.29;100.00
24390;BME280;12510;56.468;-3.004;2023-08-07T10:07:40;100601.25;;;23.70;100.00
24390;BME280;12510;56.468;-3.004;2023-08-07T10:10:08;100593.53;;;23.55;100.00
24390;BME280;12510;56.468;-3.004;2023-08-07T10:12:34;100597.66;;;23.95;100.00
24390;BME280;12510;56.468;-3.004;2023-08-07T10:15:02;100593.91;;;23.58;100.00
24390;BME280;12510;56.468;-3.004;2023-08-07T10:17:31;100582.88;;;23.67;100.00
24390;BME280;12510;56.468;-3.004;2023-08-07T10:19:58;100578.91;;;23.32;100.00
24390;BME280;12510;56.468;-3.004;2023-08-07T10:22:26;100577.41;;;23.55;100.00
24390;BME280;12510;56.468;-3.004;2023-08-07T10:24:54;100587.34;;;23.73;100.00
24390;BME280;12510;56.468;-3.004;2023-08-07T10:27:23;100576.34;;;22.93;100.00
24390;BME280;12510;56.468;-3.004;2023-08-07T10:29:53;100565.13;;;23.47;100.00
24390;BME280;12510;56.468;-3.004;2023-08-07T10:32:23;100556.53;;;23.57;100.00
24390;BME280;12510;56.468;-3.004;2023-08-07T10:34:52;100552.97;;;24.54;100.00
24390;BME280;12510;56.468;-3.004;2023-08-07T10:37:52;100544.94;;;25.14;100.00
24390;BME280;12510;56.468;-3.004;2023-08-07T10:40:19;100545.59;;;24.62;100.00
24390;BME280;12510;56.468;-3.004;2023-08-07T10:42:59;100535.31;;;25.30;94.28
24390;BME280;12510;56.468;-3.004;2023-08-07T10:45:27;100539.19;;;25.86;96.36
24390;BME280;12510;56.468;-3.004;2023-08-07T10:48:06;100518.41;;;25.58;88.24
24390;BME280;12510;56.468;-3.004;2023-08-07T10:50:34;100514.06;;;26.77;87.01
24390;BME280;12510;56.468;-3.004;2023-08-07T10:53:02;100507.59;;;26.45;85.43
24390;BME280;12510;56.468;-3.004;2023-08-07T10:55:45;100530.59;;;25.60;95.53
24390;BME280;12510;56.468;-3.004;2023-08-07T10:58:26;100530.72;;;24.59;95.31
24390;BME280;12510;56.468;-3.004;2023-08-07T11:03:57;100533.00;;;24.86;100.00
24390;BME280;12510;56.468;-3.004;2023-08-07T11:06:29;100522.34;;;25.15;92.87
24390;BME280;12510;56.468;-3.004;2023-08-07T11:09:00;100521.28;;;24.68;96.66
24390;BME280;12510;56.468;-3.004;2023-08-07T11:11:27;100537.09;;;23.55;100.00
24390;BME280;12510;56.468;-3.004;2023-08-07T11:13:53;100533.56;;;23.17;100.00
24390;BME280;12510;56.468;-3.004;2023-08-07T11:16:20;100535.66;;;23.71;100.00
24390;BME280;12510;56.468;-3.004;2023-08-07T11:18:48;100547.31;;;23.83;100.00
24390;BME280;12510;56.468;-3.004;2023-08-07T11:21:15;100525.53;;;23.36;100.00
24390;BME280;12510;56.468;-3.004;2023-08-07T11:23:41;100523.28;;;24.73;100.00
24390;BME280;12510;56.468;-3.004;2023-08-07T11:26:10;100530.19;;;23.77;100.00
24390;BME280;12510;56.468;-3.004;2023-08-07T11:28:36;100523.47;;;24.05;100.00
24390;BME280;12510;56.468;-3.004;2023-08-07T11:31:03;100531.28;;;23.39;100.00
24390;BME280;12510;56.468;-3.004;2023-08-07T11:33:29;100525.09;;;24.06;100.00
24390;BME280;12510;56.468;-3.004;2023-08-07T11:35:57;100518.13;;;23.68;98.22
24390;BME280;12510;56.468;-3.004;2023-08-07T11:38:34;100526.66;;;23.28;100.00
24390;BME280;12510;56.468;-3.004;2023-08-07T11:41:03;100528.59;;;23.76;100.00
24390;BME280;12510;56.468;-3.004;2023-08-07T11:43:30;100510.91;;;23.50;97.68
24390;BME280;12510;56.468;-3.004;2023-08-07T11:45:58;100500.81;;;23.64;100.00
24390;BME280;12510;56.468;-3.004;2023-08-07T11:48:30;100488.41;;;23.82;95.28
24390;BME280;12510;56.468;-3.004;2023-08-07T11:50:58;100490.03;;;23.15;94.65
24390;BME280;12510;56.468;-3.004;2023-08-07T11:53:26;100491.25;;;22.43;95.69
24390;BME280;12510;56.468;-3.004;2023-08-07T11:55:56;100496.31;;;22.58;98.08
24390;BME280;12510;56.468;-3.004;2023-08-07T11:58:24;100492.47;;;22.73;98.67
24390;BME280;12510;56.468;-3.004;2023-08-07T12:00:52;100491.94;;;22.64;97.33
24390;BME280;12510;56.468;-3.004;2023-08-07T12:03:30;100479.94;;;23.29;95.76
24390;BME280;12510;56.468;-3.004;2023-08-07T12:05:58;100480.97;;;22.66;92.10
24390;BME280;12510;56.468;-3.004;2023-08-07T12:08:32;100480.81;;;23.04;92.52
24390;BME280;12510;56.468;-3.004;2023-08-07T12:11:01;100480.38;;;23.63;94.43
24390;BME280;12510;56.468;-3.004;2023-08-07T12:13:29;100476.47;;;23.03;86.76
24390;BME280;12510;56.468;-3.004;2023-08-07T12:15:57;100481.97;;;22.90;90.85
24390;BME280;12510;56.468;-3.004;2023-08-07T12:18:26;100468.44;;;23.40;86.17
24390;BME280;12510;56.468;-3.004;2023-08-07T12:20:57;100461.03;;;23.85;86.08
24390;BME280;12510;56.468;-3.004;2023-08-07T12:23:24;100459.03;;;23.50;84.20
24390;BME280;12510;56.468;-3.004;2023-08-07T12:25:51;100461.47;;;23.70;85.66
24390;BME280;12510;56.468;-3.004;2023-08-07T12:28:19;100479.69;;;23.12;86.28
24390;BME280;12510;56.468;-3.004;2023-08-07T12:30:46;100478.59;;;23.20;87.10
24390;BME280;12510;56.468;-3.004;2023-08-07T12:33:13;100475.91;;;23.20;88.36
24390;BME280;12510;56.468;-3.004;2023-08-07T12:35:40;100480.66;;;23.55;93.92
24390;BME280;12510;56.468;-3.004;2023-08-07T12:38:07;100470.19;;;23.65;89.28
24390;BME280;12510;56.468;-3.004;2023-08-07T12:40:36;100445.53;;;23.38;82.96
24390;BME280;12510;56.468;-3.004;2023-08-07T12:43:06;100451.56;;;23.52;80.98
24390;BME280;12510;56.468;-3.004;2023-08-07T12:45:33;100461.50;;;23.33;88.65
24390;BME280;12510;56.468;-3.004;2023-08-07T12:48:00;100453.25;;;24.61;90.13
24390;BME280;12510;56.468;-3.004;2023-08-07T12:50:28;100438.16;;;24.96;83.00